Time;durP1;ratioP1;P1;durP2;ratioP2;P2;SDS_P1;SDS_P2;PMS_P1;PMS_P2;Temp;Humidity;BMP_temperature;BMP_pressure;BME280_temperature;BME280_humidity;BME280_pressure;Samples;Min_cycle;Max_cycle;Signal;HPM_P1;HPM_P2
2022/06/27 00:01:38;;;;;;;10.52;9.43;;;17.80;99.90;;;;;;5071682;28;20090;-81
2022/06/27 00:04:04;;;;;;;9.35;8.45;;;17.80;99.90;;;;;;5099568;28;20043;-81
2022/06/27 00:06:30;;;;;;;10.23;9.18;;;17.80;99.90;;;;;;5099244;28;20032;-81
2022/06/27 00:08:55;;;;;;;9.20;8.27;;;17.80;99.90;;;;;;5097172;28;20069;-81
2022/06/27 00:11:22;;;;;;;8.55;7.65;;;17.80;99.90;;;;;;5093675;28;20028;-81
2022/06/27 00:13:48;;;;;;;9.57;8.68;;;17.80;99.90;;;;;;5093960;28;20094;-81
2022/06/27 00:16:13;;;;;;;12.63;9.70;;;17.70;99.90;;;;;;5095977;28;20057;-81
2022/06/27 00:18:39;;;;;;;10.25;9.23;;;17.70;99.90;;;;;;5097009;28;20036;-81
2022/06/27 00:21:04;;;;;;;11.50;9.95;;;17.70;99.90;;;;;;5090950;28;20096;-81
2022/06/27 00:23:30;;;;;;;12.27;10.82;;;17.70;99.90;;;;;;5100044;28;20178;-81
2022/06/27 00:25:56;;;;;;;10.45;9.18;;;17.70;99.90;;;;;;5096268;28;20287;-81
2022/06/27 00:28:21;;;;;;;12.98;9.45;;;17.60;99.90;;;;;;5093255;28;20040;-81
2022/06/27 00:30:47;;;;;;;9.98;9.05;;;17.60;99.90;;;;;;5103335;28;20050;-81
2022/06/27 00:33:13;;;;;;;11.15;9.48;;;17.60;99.90;;;;;;5095324;28;20047;-81
2022/06/27 00:35:38;;;;;;;9.07;8.27;;;17.50;99.90;;;;;;5100667;28;20051;-80
2022/06/27 00:38:04;;;;;;;10.65;9.65;;;17.60;99.90;;;;;;5112744;27;20080;-80
2022/06/27 00:40:29;;;;;;;10.40;9.13;;;17.60;99.90;;;;;;5081197;28;20066;-81
2022/06/27 00:42:55;;;;;;;8.90;8.02;;;17.60;99.90;;;;;;5093881;28;20433;-80
2022/06/27 00:45:21;;;;;;;8.40;7.60;;;17.50;99.90;;;;;;5094353;28;20048;-80
2022/06/27 00:47:46;;;;;;;12.50;10.98;;;17.50;99.90;;;;;;5086976;28;20098;-80
2022/06/27 00:50:12;;;;;;;13.18;10.55;;;17.60;99.90;;;;;;5112663;27;20032;-81
2022/06/27 00:52:38;;;;;;;12.55;9.10;;;17.50;99.90;;;;;;5117246;28;20085;-81
2022/06/27 00:55:05;;;;;;;11.02;9.98;;;17.50;99.90;;;;;;5091887;28;20037;-81
2022/06/27 00:57:31;;;;;;;11.20;9.75;;;17.50;99.90;;;;;;5075060;28;20029;-82
2022/06/27 00:59:56;;;;;;;13.50;9.52;;;17.50;99.90;;;;;;5100820;28;20478;-82
2022/06/27 01:02:22;;;;;;;10.85;8.82;;;17.40;99.90;;;;;;5099066;28;22064;-83
2022/06/27 01:04:48;;;;;;;12.73;9.85;;;17.40;99.90;;;;;;5091867;28;20076;-82
2022/06/27 01:07:13;;;;;;;12.05;10.95;;;17.30;99.90;;;;;;5074610;28;20040;-82
2022/06/27 01:09:40;;;;;;;8.75;7.85;;;17.30;99.90;;;;;;5070211;28;20063;-82
2022/06/27 01:12:06;;;;;;;11.27;10.13;;;17.30;99.90;;;;;;5090021;28;20682;-83
2022/06/27 01:14:32;;;;;;;10.75;9.65;;;17.40;99.90;;;;;;5091381;28;20055;-81
2022/06/27 01:16:58;;;;;;;13.00;11.02;;;17.40;99.90;;;;;;5095009;28;20040;-83
2022/06/27 01:19:24;;;;;;;12.27;9.00;;;17.30;99.90;;;;;;5093624;28;20089;-82
2022/06/27 01:21:54;;;;;;;10.90;9.75;;;17.30;99.90;;;;;;5078878;28;20044;-82
2022/06/27 01:24:22;;;;;;;10.95;9.43;;;17.30;99.90;;;;;;5094561;28;20036;-82
2022/06/27 01:26:49;;;;;;;10.23;8.90;;;17.40;99.90;;;;;;5090397;28;20032;-82
2022/06/27 01:29:16;;;;;;;13.20;10.80;;;17.30;99.90;;;;;;5097646;28;20070;-82
2022/06/27 01:31:42;;;;;;;10.20;8.65;;;17.40;99.90;;;;;;5088865;28;20040;-81
2022/06/27 01:34:08;;;;;;;10.90;8.90;;;17.30;99.90;;;;;;5087236;28;20055;-82
2022/06/27 01:36:43;;;;;;;9.73;8.35;;;17.30;99.90;;;;;;5084027;28;20461;-82
2022/06/27 01:39:29;;;;;;;12.52;9.70;;;17.30;99.90;;;;;;5090818;28;20511;-81
2022/06/27 01:42:01;;;;;;;12.18;9.57;;;17.30;99.90;;;;;;5084535;28;20040;-82
2022/06/27 01:44:30;;;;;;;10.20;8.45;;;17.30;99.90;;;;;;5088950;28;20029;-81
2022/06/27 01:47:01;;;;;;;10.70;8.85;;;17.30;99.90;;;;;;5096494;28;20043;-81
2022/06/27 01:49:28;;;;;;;10.13;8.93;;;17.30;99.90;;;;;;5092017;28;20032;-80
2022/06/27 01:51:55;;;;;;;11.32;8.85;;;17.20;99.90;;;;;;5098414;28;20040;-80
2022/06/27 01:54:22;;;;;;;9.73;8.57;;;17.30;99.90;;;;;;5079340;28;20055;-80
2022/06/27 01:56:49;;;;;;;9.30;8.30;;;17.30;99.90;;;;;;5089396;28;20041;-80
2022/06/27 01:59:17;;;;;;;9.93;8.43;;;17.40;99.90;;;;;;5099199;28;20035;-80
2022/06/27 02:01:44;;;;;;;10.57;8.18;;;17.40;99.90;;;;;;5092148;28;20032;-80
2022/06/27 02:04:12;;;;;;;9.90;8.50;;;17.40;99.90;;;;;;5101135;28;20062;-80
2022/06/27 02:06:38;;;;;;;12.70;8.65;;;17.40;99.90;;;;;;5095267;28;20036;-82
2022/06/27 02:09:06;;;;;;;12.23;9.40;;;17.40;99.90;;;;;;5075841;28;20044;-84
2022/06/27 02:11:32;;;;;;;11.95;10.75;;;17.40;99.90;;;;;;5074893;28;20063;-83
2022/06/27 02:13:58;;;;;;;12.00;10.13;;;17.40;99.90;;;;;;5085561;28;20376;-81
2022/06/27 02:16:25;;;;;;;12.35;10.90;;;17.30;99.90;;;;;;5087273;28;20490;-82
2022/06/27 02:18:50;;;;;;;16.92;12.57;;;17.30;99.90;;;;;;5086234;28;20040;-82
2022/06/27 02:21:22;;;;;;;14.75;12.82;;;17.30;99.90;;;;;;5094740;28;20032;-82
2022/06/27 02:23:50;;;;;;;15.77;13.88;;;17.20;99.90;;;;;;5092960;28;20039;-82
2022/06/27 02:26:16;;;;;;;15.30;13.35;;;17.20;99.90;;;;;;5084778;28;20028;-82
2022/06/27 02:28:42;;;;;;;14.52;12.20;;;17.20;99.90;;;;;;5081116;28;20082;-82
2022/06/27 02:31:09;;;;;;;14.20;11.50;;;17.20;99.90;;;;;;5083658;28;20047;-84
2022/06/27 02:33:38;;;;;;;15.73;12.77;;;17.20;99.90;;;;;;5079536;28;20037;-83
2022/06/27 02:36:06;;;;;;;14.95;13.38;;;17.30;99.90;;;;;;5082573;28;20039;-83
2022/06/27 02:38:32;;;;;;;17.08;14.35;;;17.30;99.90;;;;;;5084889;28;20047;-81
2022/06/27 02:41:00;;;;;;;14.95;12.77;;;17.20;99.90;;;;;;5081171;28;20029;-82
2022/06/27 02:43:29;;;;;;;14.50;12.80;;;17.20;99.90;;;;;;5080305;28;20040;-81
2022/06/27 02:45:56;;;;;;;17.45;14.23;;;17.20;99.90;;;;;;5082134;28;20181;-81
2022/06/27 02:48:26;;;;;;;20.30;17.25;;;17.30;99.90;;;;;;5087092;28;20036;-81
2022/06/27 02:50:56;;;;;;;21.67;19.33;;;17.20;99.90;;;;;;5088052;28;20123;-81
2022/06/27 02:53:31;;;;;;;19.50;17.45;;;17.20;99.90;;;;;;5083111;28;20057;-85
2022/06/27 02:55:58;;;;;;;;;;;17.10;99.90;;;;;;5081326;28;20044;-81
2022/06/27 02:58:51;;;;;;;24.08;19.58;;;17.00;99.90;;;;;;5084791;28;20504;-81
2022/06/27 03:01:19;;;;;;;25.20;20.38;;;17.00;99.90;;;;;;5082020;28;20044;-81
2022/06/27 03:03:48;;;;;;;15.85;14.25;;;17.00;99.90;;;;;;5081927;28;20028;-81
2022/06/27 03:06:14;;;;;;;18.05;16.20;;;17.00;99.90;;;;;;5068743;28;20048;-84
2022/06/27 03:08:42;;;;;;;18.23;14.20;;;16.90;99.90;;;;;;5083784;28;20080;-83
2022/06/27 03:11:10;;;;;;;12.88;11.50;;;16.90;99.90;;;;;;5079222;28;20024;-84
2022/06/27 03:13:35;;;;;;;13.00;10.23;;;16.80;99.90;;;;;;5074176;28;20076;-87
2022/06/27 03:16:01;;;;;;;12.18;10.70;;;16.80;99.90;;;;;;5075301;28;20085;-85
2022/06/27 03:18:27;;;;;;;12.55;11.25;;;16.80;99.90;;;;;;5060253;28;20041;-85
2022/06/27 03:20:53;;;;;;;12.35;10.90;;;16.80;99.90;;;;;;5080686;28;20093;-85
2022/06/27 03:23:18;;;;;;;12.48;10.60;;;16.80;99.90;;;;;;5060089;28;20032;-83
2022/06/27 03:25:44;;;;;;;9.52;8.43;;;16.70;99.90;;;;;;5061644;28;20123;-84
2022/06/27 03:28:10;;;;;;;5.85;5.35;;;16.60;99.90;;;;;;5083261;28;20041;-85
2022/06/27 03:30:36;;;;;;;6.30;3.33;;;16.60;99.90;;;;;;5086394;28;20371;-85
2022/06/27 03:33:03;;;;;;;3.92;2.35;;;16.50;99.90;;;;;;5080680;28;20043;-85
2022/06/27 03:35:29;;;;;;;2.47;2.08;;;16.40;99.90;;;;;;5082440;28;20155;-84
2022/06/27 03:37:54;;;;;;;5.10;2.30;;;16.30;99.90;;;;;;5066096;28;20535;-82
2022/06/27 03:40:20;;;;;;;3.38;2.33;;;16.20;99.90;;;;;;5082509;28;20041;-82
2022/06/27 03:42:45;;;;;;;3.05;2.42;;;16.10;99.90;;;;;;5087816;28;20036;-85
2022/06/27 03:45:11;;;;;;;4.05;3.08;;;16.00;99.90;;;;;;5072870;28;20044;-81
2022/06/27 03:47:50;;;;;;;4.60;2.45;;;16.00;99.90;;;;;;5085487;28;20036;-81
2022/06/27 03:50:20;;;;;;;5.07;2.42;;;16.00;99.90;;;;;;5085197;28;20058;-81
2022/06/27 03:52:46;;;;;;;5.32;2.55;;;16.00;99.90;;;;;;5086726;28;20371;-80
2022/06/27 03:55:12;;;;;;;3.63;2.42;;;16.00;99.90;;;;;;5079994;28;20124;-81
2022/06/27 03:57:39;;;;;;;5.13;3.22;;;16.00;99.90;;;;;;5075513;28;20189;-80
2022/06/27 04:00:09;;;;;;;3.13;2.47;;;15.90;99.90;;;;;;5082706;28;20044;-81
2022/06/27 04:02:35;;;;;;;3.65;2.88;;;15.80;99.90;;;;;;5081373;28;20086;-81
2022/06/27 04:05:02;;;;;;;6.05;3.05;;;15.80;99.90;;;;;;5079684;28;20051;-83
2022/06/27 04:07:27;;;;;;;3.20;2.63;;;15.80;99.90;;;;;;5082642;28;20033;-80
2022/06/27 04:09:53;;;;;;;3.53;3.08;;;15.70;99.90;;;;;;5084608;28;20045;-82
2022/06/27 04:12:18;;;;;;;4.57;2.78;;;15.70;99.90;;;;;;5077346;28;20032;-82
2022/06/27 04:14:44;;;;;;;4.10;3.25;;;15.70;99.90;;;;;;5079382;28;20052;-81
2022/06/27 04:17:09;;;;;;;3.80;2.65;;;15.70;99.90;;;;;;5086329;28;20043;-82
2022/06/27 04:19:35;;;;;;;5.80;3.03;;;15.70;99.90;;;;;;5070628;28;20024;-81
2022/06/27 04:22:01;;;;;;;3.65;2.72;;;15.80;99.90;;;;;;5088558;28;20494;-79
2022/06/27 04:24:26;;;;;;;9.30;3.58;;;15.70;99.90;;;;;;5080934;28;20093;-80
2022/06/27 04:26:52;;;;;;;8.60;4.35;;;15.80;99.90;;;;;;5076980;28;20046;-80
2022/06/27 04:29:17;;;;;;;6.93;3.95;;;15.80;99.90;;;;;;5075126;28;20247;-83
2022/06/27 04:31:43;;;;;;;4.72;3.20;;;15.80;99.90;;;;;;5076462;28;20061;-84
2022/06/27 04:34:12;;;;;;;5.18;2.97;;;15.70;99.90;;;;;;5082644;28;20036;-84
2022/06/27 04:36:37;;;;;;;3.78;3.40;;;15.80;99.90;;;;;;5085042;28;20040;-84
2022/06/27 04:39:03;;;;;;;3.45;2.53;;;15.80;99.90;;;;;;5063313;28;20487;-84
2022/06/27 04:41:29;;;;;;;6.10;3.35;;;15.80;99.90;;;;;;5075188;28;20458;-85
2022/06/27 04:43:55;;;;;;;5.82;3.15;;;15.80;99.90;;;;;;5066915;28;20081;-84
2022/06/27 04:46:22;;;;;;;5.20;3.38;;;15.80;99.90;;;;;;5066126;28;20040;-85
2022/06/27 04:48:48;;;;;;;5.57;3.33;;;15.80;99.90;;;;;;5087482;28;20140;-84
2022/06/27 04:51:14;;;;;;;4.45;3.00;;;15.80;99.90;;;;;;5088136;28;20061;-84
2022/06/27 04:59:05;;;;;;;6.95;4.20;;;15.80;99.90;;;;;;5058971;28;20040;-84
2022/06/27 05:01:54;;;;;;;4.03;3.08;;;15.70;99.90;;;;;;5047776;28;20052;-85
2022/06/27 05:04:21;;;;;;;4.28;3.83;;;15.70;99.90;;;;;;5065239;28;20461;-84
2022/06/27 05:06:48;;;;;;;3.35;2.65;;;15.80;99.90;;;;;;5064263;28;20454;-85
2022/06/27 05:09:14;;;;;;;2.95;2.65;;;15.80;99.90;;;;;;5061130;28;20044;-84
2022/06/27 05:11:41;;;;;;;4.03;3.15;;;15.80;99.90;;;;;;5041887;28;20117;-83
2022/06/27 05:14:06;;;;;;;3.13;2.38;;;15.90;99.90;;;;;;5056189;28;20037;-84
2022/06/27 05:16:32;;;;;;;4.75;2.40;;;15.90;99.90;;;;;;5029507;28;20613;-83
2022/06/27 05:18:58;;;;;;;3.78;2.72;;;15.90;99.90;;;;;;5055311;28;20518;-82
2022/06/27 05:21:23;;;;;;;3.00;2.22;;;16.00;99.90;;;;;;5054314;28;20467;-84
2022/06/27 05:23:50;;;;;;;3.65;2.70;;;16.10;99.90;;;;;;5038243;28;20102;-82
2022/06/27 05:26:16;;;;;;;3.70;2.25;;;16.00;99.90;;;;;;5053989;28;20073;-84
2022/06/27 05:28:42;;;;;;;3.10;2.70;;;16.10;99.90;;;;;;5054829;28;20048;-84
2022/06/27 05:31:09;;;;;;;2.83;1.70;;;16.10;99.90;;;;;;5041235;28;20041;-83
2022/06/27 05:33:35;;;;;;;2.58;1.83;;;16.20;99.90;;;;;;5059998;28;20044;-83
2022/06/27 05:36:01;;;;;;;2.13;1.80;;;16.20;99.90;;;;;;5059661;28;20152;-83
2022/06/27 05:38:27;;;;;;;3.15;2.30;;;16.20;99.90;;;;;;5042654;28;20048;-82
2022/06/27 05:40:52;;;;;;;3.00;2.50;;;16.20;99.90;;;;;;5060294;28;20040;-83
2022/06/27 05:43:19;;;;;;;2.58;2.10;;;16.30;99.90;;;;;;5044852;28;20037;-81
2022/06/27 05:45:45;;;;;;;3.15;2.35;;;16.20;99.90;;;;;;5045120;28;20109;-81
2022/06/27 05:48:11;;;;;;;5.75;2.42;;;16.20;99.90;;;;;;5043983;28;20040;-84
2022/06/27 05:50:37;;;;;;;4.22;2.03;;;16.30;99.90;;;;;;5059554;28;20064;-84
2022/06/27 05:53:03;;;;;;;3.22;2.30;;;16.50;99.90;;;;;;5058673;28;20094;-80
2022/06/27 05:55:29;;;;;;;2.65;2.15;;;16.60;99.90;;;;;;5060862;28;20041;-83
2022/06/27 05:57:59;;;;;;;2.40;1.65;;;16.70;99.90;;;;;;5054615;28;20036;-86
2022/06/27 06:00:25;;;;;;;3.35;2.17;;;16.80;99.90;;;;;;5054609;28;20039;-86
2022/06/27 06:02:55;;;;;;;4.72;2.15;;;16.90;99.90;;;;;;5071348;28;20071;-86
2022/06/27 06:05:21;;;;;;;3.83;2.33;;;17.10;99.90;;;;;;5052947;28;20059;-86
2022/06/27 06:07:48;;;;;;;3.45;2.20;;;17.10;99.90;;;;;;5038921;28;20045;-86
2022/06/27 06:10:14;;;;;;;2.38;1.90;;;17.00;99.90;;;;;;5055311;28;20238;-86
2022/06/27 06:12:40;;;;;;;3.03;2.72;;;17.10;99.90;;;;;;5055165;28;20170;-85
2022/06/27 06:15:08;;;;;;;3.13;2.15;;;17.10;99.90;;;;;;5054204;28;20045;-86
2022/06/27 06:17:36;;;;;;;2.42;1.73;;;17.10;99.90;;;;;;5054651;28;20096;-86
2022/06/27 06:20:05;;;;;;;3.13;2.10;;;17.10;99.90;;;;;;5055152;28;20041;-86
2022/06/27 06:22:31;;;;;;;2.92;2.10;;;17.10;99.90;;;;;;5055072;28;20403;-86
2022/06/27 06:24:58;;;;;;;6.20;2.38;;;17.10;99.90;;;;;;5073452;28;20036;-85
2022/06/27 06:27:23;;;;;;;3.35;1.92;;;17.20;99.90;;;;;;5074092;28;20072;-86
2022/06/27 06:29:49;;;;;;;2.67;1.85;;;17.20;99.90;;;;;;5074703;28;20555;-86
2022/06/27 06:32:15;;;;;;;3.50;2.70;;;17.20;99.90;;;;;;5057870;28;20093;-86
2022/06/27 06:34:42;;;;;;;2.67;1.67;;;17.20;99.90;;;;;;5074758;28;20044;-85
2022/06/27 06:37:09;;;;;;;2.05;1.55;;;17.30;99.90;;;;;;5077166;28;20040;-83
2022/06/27 06:39:35;;;;;;;3.60;3.05;;;17.20;99.90;;;;;;5064974;28;20486;-83
2022/06/27 06:42:01;;;;;;;2.40;1.90;;;17.30;99.90;;;;;;5073220;28;20085;-84
2022/06/27 06:44:26;;;;;;;6.25;2.28;;;17.30;99.90;;;;;;5074498;28;20093;-85
2022/06/27 06:46:54;;;;;;;2.38;1.88;;;17.30;99.90;;;;;;5074676;28;20040;-84
2022/06/27 06:49:20;;;;;;;3.53;2.75;;;17.30;99.90;;;;;;5073377;28;20044;-84
2022/06/27 06:51:46;;;;;;;4.75;3.63;;;17.20;99.90;;;;;;5056567;28;20394;-84
2022/06/27 06:54:12;;;;;;;2.70;2.15;;;17.20;99.90;;;;;;5073236;28;20047;-84
2022/06/27 06:56:38;;;;;;;2.70;2.45;;;17.00;99.90;;;;;;5071768;28;20047;-84
2022/06/27 06:59:04;;;;;;;2.78;1.70;;;17.00;99.90;;;;;;5060228;28;20037;-84
2022/06/27 07:01:35;;;;;;;4.15;2.25;;;17.10;99.90;;;;;;5059973;28;20085;-84
2022/06/27 07:04:01;;;;;;;3.72;2.40;;;17.20;99.90;;;;;;5076625;28;20032;-84
2022/06/27 07:06:28;;;;;;;4.57;2.67;;;17.30;99.90;;;;;;5083477;28;20498;-80
2022/06/27 07:08:57;;;;;;;2.80;2.30;;;17.40;99.90;;;;;;5086171;28;20032;-82
2022/06/27 07:11:25;;;;;;;4.35;2.42;;;17.50;99.90;;;;;;5089388;28;20066;-82
2022/06/27 07:13:51;;;;;;;5.28;2.15;;;17.50;99.90;;;;;;5106972;28;20044;-82
2022/06/27 07:16:21;;;;;;;3.75;1.80;;;17.50;99.90;;;;;;5107431;28;20066;-82
2022/06/27 07:18:51;;;;;;;2.83;2.25;;;17.60;99.90;;;;;;5088378;28;20051;-82
2022/06/27 07:21:18;;;;;;;3.25;1.88;;;17.60;99.90;;;;;;5106623;28;20040;-83
2022/06/27 07:23:48;;;;;;;3.60;2.72;;;17.60;99.90;;;;;;5106352;28;20036;-82
2022/06/27 07:26:15;;;;;;;2.30;2.08;;;17.60;99.90;;;;;;5087296;28;20047;-82
2022/06/27 07:28:40;;;;;;;2.67;2.05;;;17.60;99.90;;;;;;5088518;28;20062;-82
2022/06/27 07:31:11;;;;;;;4.85;3.30;;;17.60;99.90;;;;;;5087658;28;20249;-82
2022/06/27 07:33:38;;;;;;;5.35;3.28;;;17.60;99.90;;;;;;5087480;28;20044;-82
2022/06/27 07:36:06;;;;;;;4.57;3.70;;;17.60;99.90;;;;;;5106564;28;20035;-83
2022/06/27 07:38:36;;;;;;;3.72;3.25;;;17.60;99.90;;;;;;5106544;28;20055;-83
2022/06/27 07:41:49;;;;;;;2.97;2.72;;;17.60;99.90;;;;;;5083334;28;20044;-86
2022/06/27 07:44:15;;;;;;;4.32;2.13;;;17.50;99.90;;;;;;5077412;28;20494;-85
2022/06/27 07:46:41;;;;;;;4.30;2.45;;;17.60;99.90;;;;;;5079302;28;20104;-82
2022/06/27 07:49:07;;;;;;;3.58;3.25;;;17.60;99.90;;;;;;5078672;28;20048;-82
2022/06/27 07:51:33;;;;;;;6.05;3.10;;;17.60;99.90;;;;;;5080062;28;20047;-82
2022/06/27 07:53:58;;;;;;;4.78;3.03;;;17.70;99.90;;;;;;5079121;28;20039;-82
2022/06/27 07:56:24;;;;;;;4.68;3.15;;;17.70;99.90;;;;;;5077646;28;20040;-83
2022/06/27 07:58:50;;;;;;;3.10;2.80;;;17.80;99.90;;;;;;5061610;28;20088;-83
2022/06/27 08:01:18;;;;;;;3.42;3.10;;;17.80;99.90;;;;;;5080205;28;20031;-83
2022/06/27 08:03:50;;;;;;;4.28;2.95;;;17.80;99.90;;;;;;5064284;28;20046;-83
2022/06/27 08:06:20;;;;;;;4.10;3.00;;;17.90;99.90;;;;;;5065873;28;20053;-83
2022/06/27 08:08:48;;;;;;;4.07;3.20;;;18.10;99.90;;;;;;5083668;28;20048;-84
2022/06/27 08:11:19;;;;;;;4.20;3.00;;;18.30;99.90;;;;;;5084129;28;20498;-84
2022/06/27 08:13:47;;;;;;;4.18;3.00;;;18.40;99.90;;;;;;5066763;28;20040;-84
2022/06/27 08:16:14;;;;;;;5.20;4.35;;;18.50;99.90;;;;;;5084030;28;20510;-84
2022/06/27 08:18:44;;;;;;;3.80;3.30;;;18.50;99.90;;;;;;5086687;28;20036;-84
2022/06/27 08:24:46;;;;;;;3.58;2.83;;;18.60;99.90;;;;;;5074964;28;20090;-84
2022/06/27 08:27:14;;;;;;;3.58;3.28;;;18.60;99.90;;;;;;5072987;28;20044;-84
2022/06/27 08:29:42;;;;;;;3.47;3.00;;;18.60;99.90;;;;;;5072144;28;20051;-84
2022/06/27 08:32:08;;;;;;;4.43;4.03;;;18.60;99.90;;;;;;5073844;28;20047;-83
2022/06/27 08:34:34;;;;;;;4.72;4.00;;;18.60;99.90;;;;;;5074214;28;20050;-82
2022/06/27 08:37:01;;;;;;;4.85;3.90;;;18.70;99.90;;;;;;5069496;28;20076;-84
2022/06/27 08:39:28;;;;;;;5.70;4.40;;;18.80;99.90;;;;;;5077261;28;20074;-85
2022/06/27 08:41:54;;;;;;;4.57;4.18;;;18.80;99.90;;;;;;5074457;28;20478;-85
2022/06/27 08:44:23;;;;;;;5.28;4.15;;;19.00;99.90;;;;;;5075934;28;20036;-84
2022/06/27 08:46:51;;;;;;;4.85;4.38;;;19.00;99.90;;;;;;5058157;28;20115;-85
2022/06/27 08:49:17;;;;;;;7.03;5.97;;;19.00;99.90;;;;;;5080550;28;20079;-82
2022/06/27 08:51:44;;;;;;;6.38;5.68;;;19.00;99.90;;;;;;5072910;28;20063;-82
2022/06/27 08:54:09;;;;;;;7.70;6.03;;;19.10;99.90;;;;;;5072142;28;20036;-82
2022/06/27 08:56:35;;;;;;;6.35;5.70;;;19.00;99.90;;;;;;5072186;28;20053;-83
2022/06/27 08:59:01;;;;;;;5.82;5.25;;;19.00;99.90;;;;;;5072455;28;20059;-84
2022/06/27 09:01:30;;;;;;;6.53;5.88;;;18.80;99.90;;;;;;5088368;28;20044;-85
2022/06/27 09:03:58;;;;;;;7.22;6.55;;;18.90;99.90;;;;;;5072014;28;20039;-83
2022/06/27 09:06:27;;;;;;;6.55;5.93;;;18.90;99.90;;;;;;5089043;28;20044;-81
2022/06/27 09:09:03;;;;;;;6.55;5.93;;;18.90;99.90;;;;;;5089618;28;20039;-81
2022/06/27 09:11:32;;;;;;;6.50;5.90;;;18.80;99.90;;;;;;5071838;28;20032;-84
2022/06/27 09:13:58;;;;;;;6.30;5.70;;;18.90;99.90;;;;;;5107464;28;20044;-82
2022/06/27 09:16:24;;;;;;;6.55;5.95;;;18.80;99.90;;;;;;5089199;28;20111;-81
2022/06/27 09:18:50;;;;;;;7.13;6.43;;;18.90;99.90;;;;;;5089680;28;20058;-81
2022/06/27 09:21:17;;;;;;;5.95;5.03;;;18.80;99.90;;;;;;5089621;28;20040;-83
2022/06/27 09:23:47;;;;;;;6.05;5.53;;;18.90;99.90;;;;;;5074297;28;20036;-83
2022/06/27 09:26:34;;;;;;;6.20;5.38;;;18.80;99.90;;;;;;5073709;28;20043;-84
2022/06/27 09:29:19;;;;;;;7.00;5.93;;;18.80;99.90;;;;;;5074463;28;20036;-84
2022/06/27 09:31:45;;;;;;;6.85;6.22;;;18.90;99.90;;;;;;5074234;28;20028;-84
2022/06/27 09:34:18;;;;;;;6.45;5.85;;;18.90;99.90;;;;;;5078500;28;20100;-82
2022/06/27 09:36:51;;;;;;;7.18;6.47;;;18.80;99.90;;;;;;5087750;28;20044;-81
2022/06/27 09:39:33;;;;;;;8.82;6.35;;;18.80;99.90;;;;;;5088046;28;20064;-83
2022/06/27 09:42:08;;;;;;;7.78;6.65;;;18.80;99.90;;;;;;5072131;28;20032;-82
2022/06/27 09:44:38;;;;;;;6.97;6.38;;;18.70;99.90;;;;;;5090736;28;20462;-82
2022/06/27 09:47:10;;;;;;;9.63;7.07;;;18.70;99.90;;;;;;5091530;28;20070;-81
2022/06/27 09:49:50;;;;;;;7.57;6.88;;;18.80;99.90;;;;;;5089109;28;20160;-86
2022/06/27 09:52:25;;;;;;;6.93;6.22;;;18.90;99.90;;;;;;5079848;28;20574;-79
2022/06/27 09:54:54;;;;;;;7.65;6.88;;;18.90;99.90;;;;;;5062253;28;20044;-79
2022/06/27 09:57:21;;;;;;;6.70;6.10;;;19.10;99.90;;;;;;5079333;28;20343;-79
2022/06/27 09:59:49;;;;;;;7.50;6.78;;;19.20;99.90;;;;;;5064049;28;20449;-80
2022/06/27 10:02:17;;;;;;;6.22;5.53;;;19.30;99.90;;;;;;5081947;28;20270;-81
2022/06/27 10:04:43;;;;;;;6.78;6.07;;;19.30;99.90;;;;;;5081390;28;20075;-82
2022/06/27 10:07:13;;;;;;;7.10;6.50;;;19.40;99.90;;;;;;5082618;28;20047;-82
2022/06/27 10:09:40;;;;;;;7.38;6.68;;;19.40;99.90;;;;;;5083501;28;20062;-83
2022/06/27 10:12:31;;;;;;;6.38;5.88;;;19.30;99.90;;;;;;5084166;28;20043;-83
2022/06/27 10:15:42;;;;;;;5.25;4.75;;;19.20;99.90;;;;;;5261051;22;20051;-83
2022/06/27 10:18:51;;;;;;;5.30;4.75;;;19.20;99.90;;;;;;5119479;28;20139;-83
2022/06/27 10:21:42;;;;;;;6.25;5.65;;;19.40;99.90;;;;;;5104432;28;20057;-83
2022/06/27 10:24:56;;;;;;;;;;;;;;;;;;;;;
2022/06/27 10:47:34;;;;;;;5.28;4.78;;;19.80;99.90;;;;;;4931089;29;20083;-83
2022/06/27 10:50:26;;;;;;;5.20;4.57;;;19.90;99.90;;;;;;4919887;29;20040;-85
2022/06/27 10:53:22;;;;;;;3.50;3.20;;;19.90;99.90;;;;;;4901474;29;20530;-84
2022/06/27 10:55:48;;;;;;;4.13;3.08;;;20.00;99.90;;;;;;4954146;29;20050;-84
2022/06/27 10:58:27;;;;;;;3.97;3.67;;;20.10;99.90;;;;;;5025529;28;20052;-85
2022/06/27 11:01:14;;;;;;;4.13;2.65;;;20.20;99.90;;;;;;5076769;28;20102;-85
2022/06/27 11:03:40;;;;;;;3.58;3.33;;;20.20;99.90;;;;;;5078347;28;20043;-83
2022/06/27 11:06:08;;;;;;;3.72;3.28;;;20.20;99.90;;;;;;5088162;28;20085;-82
2022/06/27 11:08:37;;;;;;;3.75;3.40;;;20.20;99.90;;;;;;5086858;28;20091;-82
2022/06/27 11:11:04;;;;;;;2.53;2.33;;;20.30;99.90;;;;;;5069626;28;20043;-82
2022/06/27 11:13:38;;;;;;;3.50;2.80;;;20.30;99.90;;;;;;5071025;28;20040;-82
2022/06/27 11:16:05;;;;;;;2.55;2.33;;;20.40;99.90;;;;;;5088834;28;20094;-83
2022/06/27 11:18:56;;;;;;;2.95;2.13;;;20.30;99.90;;;;;;5090268;28;20048;-82
2022/06/27 11:21:28;;;;;;;3.03;2.00;;;20.50;99.90;;;;;;5090759;28;20572;-81
2022/06/27 11:24:09;;;;;;;2.47;2.28;;;20.50;99.90;;;;;;5090807;28;20047;-81
2022/06/27 11:26:36;;;;;;;2.53;2.33;;;20.60;99.90;;;;;;5090719;28;20040;-82
2022/06/27 11:32:03;;;;;;;2.65;1.95;;;20.70;99.90;;;;;;5109371;28;20040;-80
2022/06/27 11:34:31;;;;;;;3.53;2.17;;;20.70;99.90;;;;;;5094772;28;20036;-82
2022/06/27 11:36:58;;;;;;;4.57;2.10;;;20.80;99.90;;;;;;5095659;28;20048;-81
2022/06/27 11:39:25;;;;;;;1.80;1.35;;;20.80;99.90;;;;;;5109708;28;20170;-81
2022/06/27 11:41:59;;;;;;;3.00;2.30;;;20.70;99.90;;;;;;5090965;28;20039;-82
2022/06/27 11:44:26;;;;;;;1.63;1.53;;;20.80;99.90;;;;;;5087723;28;20044;-81
2022/06/27 11:47:01;;;;;;;2.47;1.92;;;21.00;99.90;;;;;;5085607;28;20055;-83
2022/06/27 11:49:38;;;;;;;3.00;1.40;;;21.00;99.90;;;;;;5093365;28;20039;-83
2022/06/27 11:52:12;;;;;;;1.95;1.33;;;20.90;99.90;;;;;;5093263;28;20087;-83
2022/06/27 11:54:46;;;;;;;1.90;1.35;;;20.80;99.90;;;;;;5093603;28;20343;-83
2022/06/27 11:57:31;;;;;;;1.52;1.17;;;20.90;99.90;;;;;;5093621;28;20048;-83
2022/06/27 11:59:58;;;;;;;3.15;1.30;;;20.90;99.90;;;;;;5094821;28;20035;-83
2022/06/27 12:02:35;;;;;;;1.15;0.93;;;21.00;99.90;;;;;;5096733;28;20360;-83
2022/06/27 12:05:06;;;;;;;1.08;0.77;;;21.00;99.90;;;;;;5096847;28;20146;-83
2022/06/27 12:07:47;;;;;;;1.98;0.82;;;20.80;99.90;;;;;;5096518;28;20055;-83
2022/06/27 12:10:14;;;;;;;1.15;0.68;;;20.80;99.90;;;;;;5096849;28;20051;-83
2022/06/27 12:12:45;;;;;;;1.15;0.68;;;20.80;99.90;;;;;;5096270;28;20047;-83
2022/06/27 12:15:23;;;;;;;0.80;0.40;;;20.80;99.90;;;;;;5096020;28;20078;-83
2022/06/27 12:17:55;;;;;;;0.70;0.50;;;20.70;99.90;;;;;;5097543;28;20056;-84
2022/06/27 12:20:21;;;;;;;1.23;0.80;;;20.80;99.90;;;;;;5076862;28;20043;-83
2022/06/27 12:22:48;;;;;;;2.38;0.77;;;20.90;99.90;;;;;;5077599;28;20051;-81
2022/06/27 12:25:13;;;;;;;1.00;0.70;;;20.90;99.90;;;;;;5082171;28;20040;-81
2022/06/27 12:27:41;;;;;;;1.30;0.80;;;20.90;99.90;;;;;;5082360;28;20044;-82
2022/06/27 12:30:07;;;;;;;1.63;1.27;;;21.00;99.90;;;;;;5080597;28;20487;-83
2022/06/27 12:32:33;;;;;;;3.35;1.08;;;20.90;99.90;;;;;;5077493;28;20040;-84
2022/06/27 12:34:58;;;;;;;0.98;0.73;;;20.80;99.90;;;;;;5588390;22;20135;-84
2022/06/27 12:37:24;;;;;;;2.70;0.75;;;20.80;99.90;;;;;;5075662;28;20036;-85
2022/06/27 12:39:50;;;;;;;2.83;1.02;;;20.80;99.90;;;;;;5092594;28;20078;-84
2022/06/27 12:42:15;;;;;;;1.67;0.60;;;20.80;99.90;;;;;;5092923;28;20117;-84
2022/06/27 12:44:41;;;;;;;1.20;0.73;;;20.90;99.90;;;;;;5093063;28;20131;-84
2022/06/27 12:47:07;;;;;;;2.35;1.02;;;20.90;99.90;;;;;;5075475;28;20054;-84
2022/06/27 12:49:32;;;;;;;2.83;1.73;;;20.90;99.90;;;;;;5093906;28;20051;-84
2022/06/27 12:51:58;;;;;;;2.38;1.00;;;20.80;99.90;;;;;;5084688;28;20131;-85
2022/06/27 12:54:23;;;;;;;2.42;1.58;;;20.70;99.90;;;;;;5113534;28;20032;-85
2022/06/27 12:56:49;;;;;;;3.20;1.27;;;20.80;99.90;;;;;;5078750;28;20048;-85
2022/06/27 12:59:15;;;;;;;2.40;1.40;;;20.70;99.90;;;;;;5075815;28;20035;-84
2022/06/27 13:01:40;;;;;;;3.00;1.50;;;20.70;99.90;;;;;;5094016;28;20035;-85
2022/06/27 13:04:06;;;;;;;1.77;1.55;;;20.70;99.90;;;;;;5094866;28;20059;-82
2022/06/27 13:06:31;;;;;;;3.05;1.17;;;20.50;99.90;;;;;;5076323;28;20362;-84
2022/06/27 13:08:58;;;;;;;1.65;1.15;;;20.30;99.90;;;;;;5091173;28;20047;-85
2022/06/27 13:11:32;;;;;;;2.00;1.52;;;20.30;99.90;;;;;;5073964;28;20074;-85
2022/06/27 13:13:58;;;;;;;1.60;1.17;;;20.30;99.90;;;;;;5072855;28;20059;-85
2022/06/27 13:16:24;;;;;;;1.88;1.30;;;20.40;99.90;;;;;;5077475;28;20135;-84
2022/06/27 13:18:49;;;;;;;1.60;1.50;;;20.40;99.90;;;;;;5078373;28;20510;-84
2022/06/27 13:21:15;;;;;;;2.58;1.77;;;20.40;99.90;;;;;;5093580;28;20391;-84
2022/06/27 13:23:40;;;;;;;4.05;2.28;;;20.50;99.90;;;;;;5092550;28;20284;-84
2022/06/27 13:26:06;;;;;;;3.53;1.65;;;20.50;99.90;;;;;;5075437;28;20491;-84